Time;durP1;ratioP1;P1;durP2;ratioP2;P2;SDS_P1;SDS_P2;PMS_P1;PMS_P2;Temp;Humidity;BMP_temperature;BMP_pressure;BME280_temperature;BME280_humidity;BME280_pressure;Samples;Min_cycle;Max_cycle;Signal;HPM_P1;HPM_P2
2022/03/04 00:02:06;;;;;;;37.53;16.30;;;;;;;2.81;45.68;99626.81;4409691;32;35943;-76
2022/03/04 00:04:59;;;;;;;37.83;16.62;;;;;;;0.61;51.71;99637.81;4419141;32;35672;-76
2022/03/04 00:07:45;;;;;;;30.02;15.00;;;;;;;0.78;52.36;99645.91;4420941;32;34436;-76
2022/03/04 00:10:32;;;;;;;31.10;14.95;;;;;;;0.34;53.02;99646.56;4407579;32;36120;-76
2022/03/04 00:13:18;;;;;;;39.13;15.98;;;;;;;0.37;52.50;99643.37;4419735;32;34955;-76
2022/03/04 00:16:06;;;;;;;30.83;14.35;;;;;;;-0.04;53.58;99645.31;4424661;32;32976;-76
2022/03/04 00:19:09;;;;;;;31.60;14.90;;;;;;;-0.02;54.38;99637.81;4422300;32;34820;-76
2022/03/04 00:21:56;;;;;;;36.72;15.15;;;;;;;0.29;53.78;99645.66;4430240;32;35412;-76
2022/03/04 00:24:42;;;;;;;31.15;15.48;;;;;;;-0.27;54.97;99643.53;4431694;32;34984;-76
2022/03/04 00:27:29;;;;;;;32.47;15.85;;;;;;;0.28;53.94;99639.41;4430842;32;34621;-76
2022/03/04 00:30:15;;;;;;;36.20;14.90;;;;;;;1.16;51.45;99641.59;4431347;32;36653;-76
2022/03/04 00:33:02;;;;;;;35.72;15.73;;;;;;;1.70;49.77;99637.13;4409112;32;34574;-76
2022/03/04 00:35:48;;;;;;;32.63;15.73;;;;;;;2.00;49.08;99638.56;4408952;32;34878;-77
2022/03/04 00:38:34;;;;;;;30.33;15.43;;;;;;;1.92;48.83;99633.59;4431322;32;35360;-76
2022/03/04 00:41:22;;;;;;;33.80;15.57;;;;;;;2.23;48.70;99630.13;4431275;32;35193;-76
2022/03/04 00:44:09;;;;;;;31.85;16.12;;;;;;;1.90;48.82;99633.03;4419636;32;35268;-76
2022/03/04 00:46:55;;;;;;;34.60;16.10;;;;;;;2.40;47.48;99621.09;4431022;32;33978;-76
2022/03/04 00:49:42;;;;;;;35.80;17.12;;;;;;;2.04;48.24;99623.44;4431439;32;34688;-76
2022/03/04 00:52:29;;;;;;;38.15;16.60;;;;;;;1.46;49.68;99627.69;4430735;32;33888;-76
2022/03/04 00:55:15;;;;;;;38.72;17.98;;;;;;;2.59;47.14;99625.03;4419401;32;34608;-77
2022/03/04 00:58:02;;;;;;;37.78;17.92;;;;;;;2.88;46.21;99624.72;4431122;32;35637;-76
2022/03/04 01:00:48;;;;;;;40.47;17.42;;;;;;;3.00;46.10;99617.19;4430351;32;34820;-76
2022/03/04 01:03:35;;;;;;;32.63;15.25;;;;;;;2.81;46.25;99626.81;4419330;32;34481;-76
2022/03/04 01:06:22;;;;;;;39.58;18.60;;;;;;;3.04;46.45;99621.00;4432673;32;35310;-76
2022/03/04 01:09:08;;;;;;;33.00;16.50;;;;;;;3.02;46.22;99612.34;4433279;32;34939;-76
2022/03/04 01:11:55;;;;;;;38.22;16.55;;;;;;;2.97;46.07;99616.91;4421296;32;34294;-76
2022/03/04 01:14:41;;;;;;;37.00;15.60;;;;;;;3.03;45.73;99613.97;4432715;32;34296;-76
2022/03/04 01:17:27;;;;;;;36.75;16.05;;;;;;;2.88;46.27;99611.97;4432107;32;35728;-76
2022/03/04 01:20:14;;;;;;;35.50;16.52;;;;;;;3.09;45.71;99609.41;4421161;32;35036;-76
2022/03/04 01:23:00;;;;;;;30.73;15.30;;;;;;;3.09;45.66;99612.09;4433633;32;35550;-77
2022/03/04 01:25:46;;;;;;;36.47;16.50;;;;;;;2.91;45.81;99606.03;4432342;32;34210;-77
2022/03/04 01:28:32;;;;;;;34.00;15.75;;;;;;;3.18;44.82;99604.28;4432621;32;35284;-77
2022/03/04 01:31:20;;;;;;;35.17;16.30;;;;;;;3.23;45.13;99601.62;4433032;32;35633;-77
2022/03/04 01:34:06;;;;;;;36.38;15.73;;;;;;;3.36;44.53;99601.16;4443747;32;34680;-77
2022/03/04 01:36:53;;;;;;;37.58;17.23;;;;;;;3.41;43.94;99597.63;4431997;32;33896;-77
2022/03/04 01:39:39;;;;;;;36.65;17.42;;;;;;;3.50;44.38;99602.28;4441687;32;35517;-77
2022/03/04 01:42:25;;;;;;;42.60;17.60;;;;;;;3.26;44.76;99603.78;4420322;32;35014;-75
2022/03/04 01:45:12;;;;;;;33.95;16.35;;;;;;;3.40;44.69;99604.13;4446769;32;34150;-77
2022/03/04 01:47:59;;;;;;;35.85;16.40;;;;;;;3.62;43.72;99593.94;4423037;32;34168;-77
2022/03/04 01:50:49;;;;;;;35.72;15.93;;;;;;;3.70;43.57;99598.00;4436079;32;34719;-76
2022/03/04 01:53:35;;;;;;;35.03;16.55;;;;;;;3.65;43.73;99603.41;4433105;32;35023;-77
2022/03/04 01:56:24;;;;;;;35.95;16.73;;;;;;;3.73;43.76;99600.16;4420700;32;35066;-77
2022/03/04 01:59:10;;;;;;;32.25;15.75;;;;;;;3.79;44.05;99599.94;4432228;32;34462;-77
2022/03/04 02:01:57;;;;;;;32.22;15.43;;;;;;;3.98;44.29;99602.94;4421422;32;34159;-77
2022/03/04 02:04:44;;;;;;;34.78;15.93;;;;;;;3.13;47.12;99605.91;4435385;32;33872;-76
2022/03/04 02:07:30;;;;;;;31.55;15.50;;;;;;;3.05;48.29;99611.81;4432894;32;34668;-77
2022/03/04 02:10:17;;;;;;;30.00;15.18;;;;;;;3.53;48.71;99600.91;4432823;32;34826;-77
2022/03/04 02:13:04;;;;;;;34.88;16.30;;;;;;;3.56;48.58;99609.34;4420518;32;35576;-77
2022/03/04 02:15:51;;;;;;;30.73;14.80;;;;;;;3.80;48.46;99606.16;4433179;32;34516;-77
2022/03/04 02:18:37;;;;;;;27.58;14.32;;;;;;;3.43;49.89;99609.03;4421626;32;34108;-76
2022/03/04 02:21:24;;;;;;;28.50;13.95;;;;;;;3.35;50.67;99610.34;4434226;32;35148;-77
2022/03/04 02:24:10;;;;;;;30.08;13.50;;;;;;;3.52;50.62;99610.13;4425640;32;34044;-76
2022/03/04 02:27:00;;;;;;;29.10;14.95;;;;;;;3.00;54.40;99609.06;4436374;32;34485;-76
2022/03/04 02:29:46;;;;;;;29.50;14.32;;;;;;;3.10;56.59;99609.16;4429100;32;35502;-76
2022/03/04 02:32:32;;;;;;;30.25;15.10;;;;;;;3.09;57.63;99610.19;4424926;32;33315;-76
2022/03/04 02:35:20;;;;;;;32.17;15.18;;;;;;;3.25;57.82;99616.53;4434313;32;34205;-77
2022/03/04 02:38:06;;;;;;;30.48;14.35;;;;;;;3.34;57.81;99614.13;4432074;32;36017;-77
2022/03/04 02:40:52;;;;;;;28.60;14.48;;;;;;;3.64;56.91;99612.59;4420964;32;34667;-77
2022/03/04 02:43:39;;;;;;;30.48;14.85;;;;;;;3.82;56.54;99612.16;4432901;32;34583;-76
2022/03/04 02:46:26;;;;;;;32.35;14.80;;;;;;;3.90;56.06;99627.87;4438047;32;34648;-76
2022/03/04 02:49:13;;;;;;;28.87;15.13;;;;;;;4.01;55.80;99624.12;4427686;32;36277;-76
2022/03/04 02:52:00;;;;;;;33.03;15.18;;;;;;;3.93;56.01;99618.41;4436443;32;34869;-77
2022/03/04 02:54:46;;;;;;;30.58;15.63;;;;;;;4.04;55.84;99618.16;4433793;32;33320;-76
2022/03/04 02:57:33;;;;;;;31.12;16.08;;;;;;;3.92;56.31;99620.28;4421786;32;35268;-76
2022/03/04 03:00:19;;;;;;;30.73;16.00;;;;;;;3.42;57.51;99616.34;4432003;32;35000;-76
2022/03/04 03:03:06;;;;;;;31.05;15.45;;;;;;;3.80;56.51;99625.13;4432885;32;34116;-77
2022/03/04 03:05:52;;;;;;;30.17;15.93;;;;;;;3.44;57.72;99622.28;4420518;32;33783;-76
2022/03/04 03:08:39;;;;;;;32.65;15.50;;;;;;;3.60;57.50;99629.41;4420735;32;34577;-77
2022/03/04 03:11:26;;;;;;;30.30;15.45;;;;;;;3.52;57.60;99629.91;4431402;32;34819;-76
2022/03/04 03:14:12;;;;;;;33.15;15.73;;;;;;;3.39;58.14;99638.53;4421220;32;35002;-76
2022/03/04 03:16:58;;;;;;;31.83;15.55;;;;;;;3.23;58.97;99634.13;4420801;32;33918;-76
2022/03/04 03:19:45;;;;;;;28.83;15.32;;;;;;;3.33;58.65;99634.16;4423500;32;34525;-77
2022/03/04 03:22:31;;;;;;;28.85;15.00;;;;;;;3.42;58.66;99632.59;4435623;32;36002;-76
2022/03/04 03:25:17;;;;;;;29.65;15.35;;;;;;;3.50;58.22;99637.50;4434475;32;34320;-76
2022/03/04 03:28:04;;;;;;;28.83;14.25;;;;;;;3.55;58.13;99631.28;4428474;32;34222;-76
2022/03/04 03:30:51;;;;;;;31.02;15.40;;;;;;;3.65;57.74;99634.03;4435343;32;35499;-77
2022/03/04 03:33:37;;;;;;;32.60;15.15;;;;;;;3.58;57.93;99636.16;4442003;32;34902;-76
2022/03/04 03:36:24;;;;;;;31.15;14.77;;;;;;;3.68;57.50;99640.81;4421182;32;34570;-76
2022/03/04 03:39:11;;;;;;;31.70;15.05;;;;;;;3.66;57.43;99638.38;4438096;32;35186;-77
2022/03/04 03:41:58;;;;;;;32.25;16.25;;;;;;;3.66;57.34;99642.97;4447815;32;34665;-77
2022/03/04 03:44:44;;;;;;;33.08;16.50;;;;;;;3.57;57.53;99645.38;4440001;32;35936;-77
2022/03/04 03:47:31;;;;;;;33.17;16.10;;;;;;;3.57;57.63;99640.78;4435503;32;34415;-77
2022/03/04 03:50:17;;;;;;;34.38;15.90;;;;;;;3.65;57.44;99635.94;4419504;32;35259;-77
2022/03/04 03:53:04;;;;;;;33.80;16.33;;;;;;;3.59;57.62;99645.94;4431667;32;34676;-77
2022/03/04 03:55:51;;;;;;;35.65;16.37;;;;;;;3.59;57.77;99641.34;4437492;32;34647;-77
2022/03/04 03:58:37;;;;;;;33.40;16.10;;;;;;;3.54;58.08;99640.50;4447216;32;35537;-77
2022/03/04 04:01:24;;;;;;;32.13;15.02;;;;;;;3.47;58.22;99653.44;4431506;32;34251;-77
2022/03/04 04:04:14;;;;;;;33.33;16.87;;;;;;;3.69;57.85;99642.44;4431527;32;34449;-76
2022/03/04 04:07:08;;;;;;;32.25;16.58;;;;;;;3.74;57.21;99646.00;4432142;32;34612;-76
2022/03/04 04:09:55;;;;;;;28.95;15.15;;;;;;;3.71;57.37;99645.72;4424046;32;33824;-77
2022/03/04 04:12:41;;;;;;;30.65;14.82;;;;;;;3.71;57.30;99635.69;4427906;32;35636;-77
2022/03/04 04:15:27;;;;;;;32.40;16.75;;;;;;;3.60;57.66;99636.72;4431224;32;34648;-77
2022/03/04 04:18:14;;;;;;;29.25;15.48;;;;;;;3.72;57.47;99640.00;4418718;32;35891;-76
2022/03/04 04:21:00;;;;;;;31.98;15.65;;;;;;;3.76;57.33;99648.44;4431351;32;34436;-76
2022/03/04 04:23:46;;;;;;;30.33;15.15;;;;;;;3.70;57.48;99646.78;4418253;32;34269;-77
2022/03/04 04:26:33;;;;;;;29.67;15.10;;;;;;;3.69;57.44;99650.56;4431540;32;35193;-76
2022/03/04 04:29:19;;;;;;;29.92;15.93;;;;;;;3.58;57.72;99647.81;4430492;32;35025;-76
2022/03/04 04:32:06;;;;;;;32.47;15.55;;;;;;;3.55;57.90;99658.37;4430883;32;34234;-76
2022/03/04 04:34:52;;;;;;;34.22;16.92;;;;;;;3.52;58.18;99653.47;4422586;32;34270;-77
2022/03/04 04:37:39;;;;;;;30.48;16.15;;;;;;;3.29;58.62;99652.81;4421927;32;34585;-76
2022/03/04 04:40:25;;;;;;;30.45;15.45;;;;;;;2.99;59.48;99663.47;4421186;32;34713;-77
2022/03/04 04:43:11;;;;;;;34.95;16.98;;;;;;;2.84;60.36;99661.47;4426197;32;36105;-77
2022/03/04 04:45:58;;;;;;;31.05;16.60;;;;;;;2.92;60.74;99666.41;4416079;32;35307;-77
2022/03/04 04:48:44;;;;;;;30.45;16.12;;;;;;;2.58;61.74;99672.09;4423914;32;34840;-76
2022/03/04 04:51:31;;;;;;;35.00;17.25;;;;;;;1.64;66.01;99675.16;4432321;32;34482;-76
2022/03/04 04:54:17;;;;;;;34.15;15.75;;;;;;;1.89;65.15;99682.75;4424219;32;35409;-76
2022/03/04 04:57:04;;;;;;;35.95;17.80;;;;;;;0.93;68.35;99696.56;4419299;32;35137;-76
2022/03/04 04:59:51;;;;;;;35.55;16.67;;;;;;;0.10;73.31;99691.66;4424791;32;34715;-76
2022/03/04 05:02:37;;;;;;;36.53;17.60;;;;;;;-0.23;74.56;99703.13;4427515;32;35605;-76
2022/03/04 05:05:24;;;;;;;38.92;18.52;;;;;;;0.37;74.19;99697.28;4433418;32;35401;-76
2022/03/04 05:08:10;;;;;;;34.20;17.62;;;;;;;0.57;72.83;99704.06;4429589;32;34257;-76
2022/03/04 05:10:57;;;;;;;37.35;17.95;;;;;;;1.13;71.12;99703.06;4423416;32;34123;-76
2022/03/04 05:13:43;;;;;;;36.22;17.77;;;;;;;1.95;66.73;99706.06;4418683;32;35599;-76
2022/03/04 05:16:29;;;;;;;36.13;17.35;;;;;;;2.24;65.15;99715.56;4427483;32;35181;-76
2022/03/04 05:19:16;;;;;;;38.65;16.98;;;;;;;2.39;64.22;99722.19;4427172;32;33749;-76
2022/03/04 05:22:02;;;;;;;31.60;16.12;;;;;;;2.56;63.74;99717.53;4431104;32;34219;-76
2022/03/04 05:24:48;;;;;;;35.85;17.02;;;;;;;2.59;63.22;99717.00;4405611;32;34992;-75
2022/03/04 05:27:35;;;;;;;35.33;16.85;;;;;;;2.53;62.99;99720.72;4428622;32;35473;-75
2022/03/04 05:30:21;;;;;;;35.88;17.77;;;;;;;2.34;63.46;99724.88;4421469;32;35110;-76
2022/03/04 05:33:07;;;;;;;37.75;17.67;;;;;;;2.46;62.98;99729.03;4440363;32;34783;-69
2022/03/04 05:35:54;;;;;;;34.67;17.37;;;;;;;2.53;62.56;99722.59;4451379;32;34942;-70
2022/03/04 05:38:40;;;;;;;33.75;18.35;;;;;;;2.63;62.17;99731.66;4451122;32;34750;-71
2022/03/04 05:41:26;;;;;;;35.70;18.02;;;;;;;2.87;60.82;99734.00;4439852;32;35429;-71
2022/03/04 05:44:13;;;;;;;33.53;17.40;;;;;;;2.62;61.47;99746.25;4451293;32;35174;-71
2022/03/04 05:47:00;;;;;;;38.40;18.02;;;;;;;2.50;62.94;99750.16;4451900;32;35641;-71
2022/03/04 05:49:46;;;;;;;34.80;17.60;;;;;;;2.59;62.12;99749.47;4451095;32;34719;-71
2022/03/04 05:52:32;;;;;;;35.60;17.10;;;;;;;2.97;61.23;99744.13;4438716;32;35305;-71
2022/03/04 05:55:19;;;;;;;34.97;17.52;;;;;;;3.19;60.00;99757.53;4451458;32;34552;-72
2022/03/04 05:58:05;;;;;;;35.13;18.15;;;;;;;3.17;59.90;99760.53;4452013;32;35024;-71
2022/03/04 06:00:52;;;;;;;37.05;19.02;;;;;;;2.50;62.24;99767.22;4439343;32;35503;-70
2022/03/04 06:03:39;;;;;;;35.90;19.23;;;;;;;1.89;64.38;99761.91;4450848;32;33105;-69
2022/03/04 06:06:26;;;;;;;34.97;17.60;;;;;;;2.59;62.72;99770.28;4440937;32;34616;-71
2022/03/04 06:09:12;;;;;;;35.00;18.33;;;;;;;2.91;60.85;99768.44;4439982;32;34941;-72
2022/03/04 06:11:59;;;;;;;42.08;19.02;;;;;;;2.60;62.80;99767.31;4432011;32;34537;-71
2022/03/04 06:14:45;;;;;;;39.95;17.85;;;;;;;1.70;65.81;99761.38;4452584;32;35245;-71
2022/03/04 06:17:31;;;;;;;38.58;19.00;;;;;;;2.97;61.75;99777.41;4451709;32;34539;-70
2022/03/04 06:20:18;;;;;;;40.00;20.12;;;;;;;3.20;60.87;99772.72;4440298;32;34893;-71
2022/03/04 06:23:04;;;;;;;35.88;18.27;;;;;;;1.49;66.64;99779.19;4451672;32;35529;-70
2022/03/04 06:25:51;;;;;;;43.72;20.65;;;;;;;2.44;63.61;99789.88;4451438;32;34267;-70
2022/03/04 06:28:37;;;;;;;45.12;22.23;;;;;;;2.84;61.53;99785.94;4452220;32;34676;-71
2022/03/04 06:31:24;;;;;;;50.97;25.73;;;;;;;1.75;65.18;99788.47;4451563;32;35116;-70
2022/03/04 06:34:10;;;;;;;48.78;24.98;;;;;;;1.53;66.71;99801.94;4430903;32;35682;-71
2022/03/04 06:36:57;;;;;;;47.30;24.08;;;;;;;2.19;64.17;99796.63;4436959;32;34430;-71
2022/03/04 06:39:43;;;;;;;42.22;21.52;;;;;;;2.85;62.13;99801.13;4429160;32;35570;-70
2022/03/04 06:42:29;;;;;;;43.85;21.92;;;;;;;3.21;60.48;99809.56;4436566;32;36045;-71
2022/03/04 06:45:16;;;;;;;46.55;22.25;;;;;;;3.50;59.60;99808.19;4421702;32;35358;-71
2022/03/04 06:48:03;;;;;;;36.55;20.75;;;;;;;3.71;59.28;99801.00;4436955;32;34941;-71
2022/03/04 06:50:50;;;;;;;42.65;20.50;;;;;;;2.36;60.51;99810.09;4435395;32;35577;-72
2022/03/04 06:53:36;;;;;;;40.25;20.65;;;;;;;2.77;61.52;99812.41;4440353;32;35003;-71
2022/03/04 06:56:22;;;;;;;47.67;21.95;;;;;;;3.37;58.88;99808.59;4436539;32;35549;-71
2022/03/04 06:59:09;;;;;;;49.08;21.80;;;;;;;3.10;59.52;99805.94;4436262;32;34303;-71
2022/03/04 07:01:55;;;;;;;50.05;22.50;;;;;;;2.17;62.30;99809.56;4435938;32;35533;-71
2022/03/04 07:04:42;;;;;;;49.65;21.37;;;;;;;1.93;65.46;99813.56;4432850;32;36033;-77
2022/03/04 07:07:29;;;;;;;53.50;22.15;;;;;;;3.06;60.73;99815.66;4417472;32;34372;-77
2022/03/04 07:10:16;;;;;;;47.50;22.08;;;;;;;3.42;59.45;99822.19;4432583;32;34297;-77
2022/03/04 07:13:02;;;;;;;48.60;22.02;;;;;;;2.44;63.00;99812.31;4430932;32;34254;-76
2022/03/04 07:15:49;;;;;;;45.47;20.60;;;;;;;2.85;61.84;99817.37;4429743;32;35719;-79
2022/03/04 07:18:35;;;;;;;48.33;21.42;;;;;;;1.76;66.03;99827.94;4428918;32;34694;-78
2022/03/04 07:21:22;;;;;;;48.17;21.75;;;;;;;1.94;65.14;99829.56;4430843;32;33831;-76
2022/03/04 07:24:11;;;;;;;42.70;22.02;;;;;;;2.38;64.24;99820.63;4431401;32;34253;-76
2022/03/04 07:26:58;;;;;;;45.70;20.00;;;;;;;2.14;65.00;99831.72;4430752;32;35025;-77
2022/03/04 07:29:44;;;;;;;41.37;21.12;;;;;;;2.57;64.27;99826.53;4431592;32;34882;-77
2022/03/04 07:32:32;;;;;;;44.67;21.12;;;;;;;3.51;60.78;99826.06;4424779;32;33252;-77
2022/03/04 07:35:18;;;;;;;42.70;20.60;;;;;;;3.62;60.07;99836.97;4420407;32;35173;-77
2022/03/04 07:38:04;;;;;;;42.60;20.30;;;;;;;4.21;58.70;99831.34;4421990;32;34654;-77
2022/03/04 07:40:50;;;;;;;39.13;20.75;;;;;;;4.35;57.94;99832.47;4419595;32;35189;-77
2022/03/04 07:43:37;;;;;;;37.20;18.73;;;;;;;3.94;59.19;99840.44;4443624;32;35145;-77
2022/03/04 07:46:23;;;;;;;37.05;19.20;;;;;;;4.66;56.33;99838.03;4439624;32;34507;-78
2022/03/04 07:49:09;;;;;;;36.83;19.27;;;;;;;4.35;56.70;99846.06;4424245;32;34734;-77
2022/03/04 07:51:55;;;;;;;38.90;18.87;;;;;;;4.69;55.45;99851.88;4424575;32;35161;-78
2022/03/04 07:54:43;;;;;;;36.60;18.40;;;;;;;4.56;56.01;99846.16;4428596;32;33793;-79
2022/03/04 07:57:29;;;;;;;42.03;19.15;;;;;;;4.51;56.37;99844.22;4426322;32;34599;-77
2022/03/04 08:00:17;;;;;;;35.92;18.48;;;;;;;4.29;57.40;99852.53;4427284;32;35963;-77
2022/03/04 08:03:03;;;;;;;35.03;16.73;;;;;;;4.29;58.34;99872.34;4424229;32;34699;-79
2022/03/04 08:05:50;;;;;;;36.10;17.37;;;;;;;3.96;59.47;99875.44;4425954;32;33100;-78
2022/03/04 08:08:36;;;;;;;32.78;17.52;;;;;;;3.76;60.75;99881.53;4431141;32;35330;-74
2022/03/04 08:11:22;;;;;;;33.50;16.42;;;;;;;3.49;62.30;99871.53;4434496;32;34970;-74
2022/03/04 08:14:09;;;;;;;37.42;19.48;;;;;;;3.76;62.16;99876.09;4405839;32;35081;-75
2022/03/04 08:16:55;;;;;;;37.30;19.23;;;;;;;3.55;63.86;99881.34;4438519;32;35312;-73
2022/03/04 08:19:43;;;;;;;37.22;18.60;;;;;;;3.81;62.87;99885.09;4429652;32;34543;-73
2022/03/04 08:22:29;;;;;;;32.75;17.87;;;;;;;4.00;62.42;99885.47;4434559;32;34593;-74
2022/03/04 08:25:15;;;;;;;36.78;18.27;;;;;;;3.92;62.80;99883.25;4436840;32;34917;-74
2022/03/04 08:28:01;;;;;;;37.10;18.12;;;;;;;3.86;62.84;99886.19;4433629;32;34445;-74
2022/03/04 08:30:48;;;;;;;37.45;18.58;;;;;;;3.70;63.07;99891.50;4421125;32;34522;-73
2022/03/04 08:33:34;;;;;;;38.25;19.67;;;;;;;3.73;63.72;99890.97;4432875;32;34939;-73
2022/03/04 08:36:20;;;;;;;35.05;18.60;;;;;;;3.70;64.21;99894.22;4427159;32;34708;-71
2022/03/04 08:39:07;;;;;;;37.13;18.45;;;;;;;3.78;64.09;99904.56;4427330;32;34833;-73
2022/03/04 08:41:53;;;;;;;37.80;19.70;;;;;;;3.69;64.06;99897.97;4425132;32;34638;-76
2022/03/04 08:44:42;;;;;;;39.40;19.92;;;;;;;4.03;63.95;99898.50;4426292;32;35518;-76
2022/03/04 08:47:28;;;;;;;37.22;19.37;;;;;;;4.15;63.25;99898.28;4423671;32;34666;-75
2022/03/04 08:50:15;;;;;;;37.20;19.65;;;;;;;3.97;63.66;99902.25;4421448;32;34229;-75
2022/03/04 08:53:02;;;;;;;38.05;19.55;;;;;;;4.44;62.19;99893.31;4435698;32;34511;-74
2022/03/04 08:55:50;;;;;;;42.33;20.23;;;;;;;4.36;62.81;99899.25;4431932;32;35174;-74
2022/03/04 08:58:36;;;;;;;35.60;19.92;;;;;;;4.49;62.65;99896.03;4425682;32;35525;-75
2022/03/04 09:01:23;;;;;;;34.13;18.42;;;;;;;4.45;63.03;99897.66;4427001;32;33935;-75
2022/03/04 09:04:14;;;;;;;33.75;18.80;;;;;;;4.94;60.66;99902.72;4425720;32;34654;-75
2022/03/04 09:07:00;;;;;;;40.58;19.40;;;;;;;4.99;58.96;99898.41;4424581;32;35634;-75
2022/03/04 09:09:46;;;;;;;35.15;18.70;;;;;;;5.10;58.23;99898.16;4411465;32;34676;-76
2022/03/04 09:12:33;;;;;;;37.95;19.20;;;;;;;5.15;58.50;99894.63;4435487;32;33850;-76
2022/03/04 09:15:19;;;;;;;33.92;18.10;;;;;;;3.21;64.44;99899.72;4429195;32;34294;-74
2022/03/04 09:18:06;;;;;;;39.03;18.48;;;;;;;3.11;63.95;99905.88;4429187;32;34904;-75
2022/03/04 09:20:53;;;;;;;40.28;19.70;;;;;;;4.15;61.29;99900.19;4424784;32;34899;-75
2022/03/04 09:23:39;;;;;;;41.92;19.75;;;;;;;3.29;63.52;99904.69;4422638;32;34022;-75
2022/03/04 09:26:27;;;;;;;37.33;19.67;;;;;;;2.80;66.45;99906.62;4421302;32;34818;-75
2022/03/04 09:29:13;;;;;;;41.72;20.35;;;;;;;3.09;66.00;99907.19;4426887;32;34840;-75
2022/03/04 09:31:59;;;;;;;37.70;20.27;;;;;;;2.90;66.88;99904.00;4425462;32;34725;-74
2022/03/04 09:34:47;;;;;;;34.03;18.80;;;;;;;3.12;65.59;99914.81;4446209;32;35213;-73
2022/03/04 09:37:34;;;;;;;41.53;20.42;;;;;;;3.69;61.54;99924.28;4447081;32;35603;-74
2022/03/04 09:40:20;;;;;;;36.72;18.62;;;;;;;3.04;64.88;99915.25;4445455;32;36022;-74
2022/03/04 09:43:07;;;;;;;33.47;17.33;;;;;;;2.64;65.13;99919.94;4433672;32;34192;-72
2022/03/04 09:45:53;;;;;;;34.08;16.67;;;;;;;2.97;63.67;99928.19;4434458;32;34245;-75
2022/03/04 09:48:43;;;;;;;31.40;17.27;;;;;;;3.59;60.31;99923.13;4435735;32;35242;-74
2022/03/04 09:51:29;;;;;;;31.35;15.57;;;;;;;2.90;63.51;99921.09;4447327;32;35005;-75
2022/03/04 09:54:16;;;;;;;34.10;17.40;;;;;;;3.04;63.61;99918.78;4447604;32;34319;-75
2022/03/04 09:57:03;;;;;;;34.30;17.60;;;;;;;3.18;64.13;99919.19;4435177;32;34919;-75
2022/03/04 09:59:49;;;;;;;31.17;17.52;;;;;;;3.44;63.11;99922.16;4435518;32;35708;-75
2022/03/04 10:02:36;;;;;;;33.47;17.27;;;;;;;3.62;62.88;99921.78;4437007;32;34636;-74
2022/03/04 10:05:23;;;;;;;29.50;16.52;;;;;;;3.70;61.93;99921.31;4435793;32;34497;-72
2022/03/04 10:08:18;;;;;;;32.22;16.83;;;;;;;3.63;61.96;99919.88;4447745;32;34878;-73
2022/03/04 10:11:04;;;;;;;39.53;18.27;;;;;;;3.58;62.58;99920.66;4434648;32;34650;-72
2022/03/04 10:13:53;;;;;;;38.13;19.95;;;;;;;3.80;61.60;99915.97;4434046;32;34430;-73
2022/03/04 10:16:41;;;;;;;37.00;20.08;;;;;;;3.25;64.91;99919.00;4445742;32;33641;-72
2022/03/04 10:19:29;;;;;;;37.83;20.30;;;;;;;3.68;63.77;99917.22;4446085;32;35010;-73
2022/03/04 10:22:16;;;;;;;37.58;20.27;;;;;;;3.99;62.59;99919.09;4447024;32;34262;-71
2022/03/04 10:25:23;;;;;;;37.33;19.30;;;;;;;3.94;62.06;99918.22;4435140;32;35691;-71
2022/03/04 10:28:13;;;;;;;36.70;19.48;;;;;;;4.48;60.61;99913.41;4446519;32;34201;-72
2022/03/04 10:30:59;;;;;;;38.10;20.70;;;;;;;4.16;61.65;99915.41;4431899;32;90065;-74
2022/03/04 10:34:07;;;;;;;35.92;20.67;;;;;;;4.42;59.87;99911.75;4424880;32;35196;-73
2022/03/04 10:37:15;;;;;;;41.03;21.37;;;;;;;4.03;62.35;99909.34;4422628;32;34891;-73
2022/03/04 10:40:12;;;;;;;38.92;21.52;;;;;;;4.72;59.64;99900.22;4414150;32;35190;-74
2022/03/04 10:43:09;;;;;;;40.45;22.13;;;;;;;4.23;61.15;99908.66;4413248;32;34853;-74
2022/03/04 10:46:04;;;;;;;48.33;26.37;;;;;;;3.60;63.18;99910.37;4433257;32;34483;-74
2022/03/04 10:48:52;;;;;;;43.08;23.00;;;;;;;3.31;65.54;99912.56;4418902;32;34507;-74
2022/03/04 10:51:39;;;;;;;47.15;24.30;;;;;;;3.67;64.86;99907.44;4420995;32;34180;-75
2022/03/04 10:54:25;;;;;;;46.88;25.12;;;;;;;3.81;64.75;99904.06;4414681;32;33810;-75
2022/03/04 10:57:12;;;;;;;52.65;27.83;;;;;;;3.54;65.39;99906.00;4428980;32;34582;-75
2022/03/04 10:59:58;;;;;;;46.92;25.83;;;;;;;2.79;67.33;99900.38;4432317;32;35880;-73
2022/03/04 11:02:45;;;;;;;49.83;24.77;;;;;;;3.30;66.69;99905.50;4428971;32;34606;-73
2022/03/04 11:05:32;;;;;;;47.33;24.05;;;;;;;3.52;65.83;99902.72;4426769;32;34179;-74
2022/03/04 11:08:20;;;;;;;46.53;25.05;;;;;;;3.80;64.67;99904.31;4428470;32;34536;-73
2022/03/04 11:11:10;;;;;;;41.80;25.20;;;;;;;3.56;64.98;99903.84;4420979;32;35357;-74
2022/03/04 11:13:58;;;;;;;41.50;21.35;;;;;;;3.42;65.13;99897.22;4432503;32;34948;-73
2022/03/04 11:16:44;;;;;;;40.45;21.67;;;;;;;3.45;66.33;99902.94;4423719;32;33986;-74
2022/03/04 11:19:33;;;;;;;39.35;22.45;;;;;;;3.99;65.40;99900.09;4425421;32;34242;-74
2022/03/04 11:22:19;;;;;;;41.70;22.00;;;;;;;3.23;67.45;99907.59;4429275;32;35075;-74
2022/03/04 11:25:12;;;;;;;43.35;21.70;;;;;;;3.50;65.99;99896.72;4422330;32;34927;-74
2022/03/04 11:28:08;;;;;;;39.13;21.65;;;;;;;3.91;64.15;99889.75;4428745;32;34799;-74
2022/03/04 11:31:00;;;;;;;43.35;20.73;;;;;;;4.43;62.24;99891.66;4419056;32;34611;-74
2022/03/04 11:33:51;;;;;;;41.13;23.17;;;;;;;5.01;61.04;99890.78;4432067;32;36040;-74
2022/03/04 11:36:39;;;;;;;43.40;20.52;;;;;;;3.49;66.69;99898.62;4428272;32;34372;-73
2022/03/04 11:39:25;;;;;;;46.58;21.98;;;;;;;3.92;66.02;99898.69;4423907;32;34267;-72
2022/03/04 11:42:15;;;;;;;40.70;21.02;;;;;;;3.42;67.12;99897.22;4429486;32;34806;-73
2022/03/04 11:45:03;;;;;;;49.10;22.58;;;;;;;3.96;64.27;99897.94;4430335;32;35612;-72
2022/03/04 11:48:02;;;;;;;38.70;21.48;;;;;;;4.68;62.72;99892.88;4432630;32;34736;-73
2022/03/04 11:50:49;;;;;;;38.22;21.48;;;;;;;4.73;62.16;99888.28;4437367;32;33959;-74
2022/03/04 11:53:35;;;;;;;39.08;19.77;;;;;;;4.53;61.74;99890.09;4433187;32;35498;-71
2022/03/04 11:56:25;;;;;;;41.13;21.23;;;;;;;4.24;62.50;99890.47;4430502;32;34579;-73
2022/03/04 11:59:19;;;;;;;40.60;20.35;;;;;;;4.53;61.46;99887.41;4430199;32;34608;-72
2022/03/04 12:02:08;;;;;;;40.35;21.00;;;;;;;4.63;60.46;99890.94;4434889;32;34725;-71
2022/03/04 12:05:13;;;;;;;43.58;22.50;;;;;;;4.16;62.21;99896.44;4428696;32;34667;-72
2022/03/04 12:07:59;;;;;;;46.60;24.05;;;;;;;4.18;62.60;99894.25;4433287;32;34988;-72
2022/03/04 12:10:48;;;;;;;42.88;22.65;;;;;;;4.17;63.90;99898.03;4429870;32;34998;-70
2022/03/04 12:13:40;;;;;;;45.65;23.10;;;;;;;3.70;66.07;99899.63;4423117;32;35303;-72
2022/03/04 12:16:45;;;;;;;43.90;24.20;;;;;;;3.46;66.23;99901.06;4420833;32;34505;-71
2022/03/04 12:19:35;;;;;;;43.17;22.17;;;;;;;3.37;66.34;99904.22;4440193;32;34908;-72
2022/03/04 12:22:24;;;;;;;40.70;24.10;;;;;;;3.16;66.46;99894.28;4420007;32;34558;-72
2022/03/04 12:25:11;;;;;;;39.40;21.10;;;;;;;3.08;66.92;99903.66;4436151;32;33802;-72
2022/03/04 12:27:58;;;;;;;42.38;23.33;;;;;;;3.69;65.25;99894.47;4415762;32;34515;-70
2022/03/04 12:30:44;;;;;;;47.33;22.50;;;;;;;3.22;65.87;99903.28;4427550;32;34858;-72
2022/03/04 12:33:36;;;;;;;54.30;29.48;;;;;;;4.04;63.53;99900.16;4431529;32;34698;-72
2022/03/04 12:36:25;;;;;;;41.42;23.80;;;;;;;3.76;65.25;99911.34;4426306;32;32766;-71
2022/03/04 12:39:11;;;;;;;46.20;22.80;;;;;;;3.77;65.58;99905.62;4427891;32;35308;-72
2022/03/04 12:41:58;;;;;;;50.22;24.77;;;;;;;4.46;64.20;99904.72;4416703;32;34790;-72
2022/03/04 12:44:45;;;;;;;45.90;23.52;;;;;;;3.83;68.35;99910.00;4430521;32;36056;-72
2022/03/04 12:47:36;;;;;;;46.92;22.50;;;;;;;3.55;68.85;99904.91;4410077;32;33815;-71
2022/03/04 12:50:30;;;;;;;43.50;23.58;;;;;;;4.28;65.63;99894.31;4436343;32;34241;-71
2022/03/04 12:53:21;;;;;;;44.88;24.58;;;;;;;3.64;67.41;99899.84;4437737;32;34551;-72
2022/03/04 12:56:07;;;;;;;46.72;24.23;;;;;;;3.84;68.14;99902.69;4437486;32;34171;-71
2022/03/04 12:59:01;;;;;;;54.97;28.17;;;;;;;3.72;69.53;99915.63;4441727;32;34902;-71